sensor_id;sensor_type;location;lat;lon;timestamp;pressure;altitude;pressure_sealevel;temperature;humidity
70488;BME280;57976;48.174;16.370;2022-10-18T00:00:57;100334.16;;;16.40;70.03
70488;BME280;57976;48.174;16.370;2022-10-18T00:03:02;100335.84;;;16.39;69.97
70488;BME280;57976;48.174;16.370;2022-10-18T00:05:07;100338.48;;;16.37;69.74
70488;BME280;57976;48.174;16.370;2022-10-18T00:07:12;100337.38;;;16.35;69.42
70488;BME280;57976;48.174;16.370;2022-10-18T00:09:17;100335.08;;;16.32;69.49
70488;BME280;57976;48.174;16.370;2022-10-18T00:11:22;100333.02;;;16.29;69.36
70488;BME280;57976;48.174;16.370;2022-10-18T00:13:26;100333.45;;;16.24;69.30
70488;BME280;57976;48.174;16.370;2022-10-18T00:15:31;100330.02;;;16.22;69.38
70488;BME280;57976;48.174;16.370;2022-10-18T00:17:36;100327.00;;;16.20;69.57
70488;BME280;57976;48.174;16.370;2022-10-18T00:19:41;100328.84;;;16.19;69.37
70488;BME280;57976;48.174;16.370;2022-10-18T00:21:46;100326.89;;;16.17;69.29
70488;BME280;57976;48.174;16.370;2022-10-18T00:23:53;100327.61;;;16.16;69.19
70488;BME280;57976;48.174;16.370;2022-10-18T00:26:03;100325.55;;;16.14;69.33
70488;BME280;57976;48.174;16.370;2022-10-18T00:28:08;100321.65;;;16.13;69.33
70488;BME280;57976;48.174;16.370;2022-10-18T00:30:13;100321.61;;;16.13;69.50
70488;BME280;57976;48.174;16.370;2022-10-18T00:32:18;100321.65;;;16.12;69.56
70488;BME280;57976;48.174;16.370;2022-10-18T00:34:27;100319.38;;;16.11;69.52
70488;BME280;57976;48.174;16.370;2022-10-18T00:36:33;100322.28;;;16.12;69.55
70488;BME280;57976;48.174;16.370;2022-10-18T00:38:38;100320.00;;;16.12;69.31
70488;BME280;57976;48.174;16.370;2022-10-18T00:40:43;100319.52;;;16.10;69.22
70488;BME280;57976;48.174;16.370;2022-10-18T00:42:48;100315.88;;;16.08;69.28
70488;BME280;57976;48.174;16.370;2022-10-18T00:45:15;100320.28;;;16.06;69.33
70488;BME280;57976;48.174;16.370;2022-10-18T00:47:21;100316.44;;;16.03;69.40
70488;BME280;57976;48.174;16.370;2022-10-18T00:49:28;100316.77;;;16.01;69.47
70488;BME280;57976;48.174;16.370;2022-10-18T00:51:37;100312.96;;;16.03;69.52
70488;BME280;57976;48.174;16.370;2022-10-18T00:53:43;100313.91;;;16.05;69.37
70488;BME280;57976;48.174;16.370;2022-10-18T00:55:48;100314.89;;;16.06;69.20
70488;BME280;57976;48.174;16.370;2022-10-18T00:57:53;100315.61;;;16.05;69.39
70488;BME280;57976;48.174;16.370;2022-10-18T01:00:03;100313.38;;;16.05;69.29
70488;BME280;57976;48.174;16.370;2022-10-18T01:02:08;100312.96;;;16.06;69.31
70488;BME280;57976;48.174;16.370;2022-10-18T01:04:14;100304.07;;;16.05;69.18
70488;BME280;57976;48.174;16.370;2022-10-18T01:06:19;100301.80;;;16.04;69.13
70488;BME280;57976;48.174;16.370;2022-10-18T01:08:38;100302.84;;;16.01;69.21
70488;BME280;57976;48.174;16.370;2022-10-18T01:10:53;100304.63;;;15.99;69.00
70488;BME280;57976;48.174;16.370;2022-10-18T01:13:09;100304.27;;;15.95;69.17
70488;BME280;57976;48.174;16.370;2022-10-18T01:15:20;100303.52;;;15.95;69.29
70488;BME280;57976;48.174;16.370;2022-10-18T01:17:30;100301.71;;;15.92;69.11
70488;BME280;57976;48.174;16.370;2022-10-18T01:20:27;100298.70;;;15.92;69.52
70488;BME280;57976;48.174;16.370;2022-10-18T01:22:36;100294.66;;;15.86;69.57
70488;BME280;57976;48.174;16.370;2022-10-18T01:25:13;100291.31;;;15.84;69.91
70488;BME280;57976;48.174;16.370;2022-10-18T01:27:47;100290.38;;;15.80;69.84
70488;BME280;57976;48.174;16.370;2022-10-18T01:32:23;100290.66;;;15.78;70.15
70488;BME280;57976;48.174;16.370;2022-10-18T01:34:34;100290.26;;;15.78;70.44
70488;BME280;57976;48.174;16.370;2022-10-18T01:36:41;100289.80;;;15.79;70.47
70488;BME280;57976;48.174;16.370;2022-10-18T01:38:52;100285.67;;;15.79;70.43
70488;BME280;57976;48.174;16.370;2022-10-18T01:40:58;100286.83;;;15.79;70.39
70488;BME280;57976;48.174;16.370;2022-10-18T01:43:05;100286.66;;;15.77;70.43
70488;BME280;57976;48.174;16.370;2022-10-18T01:45:16;100290.71;;;15.77;70.48
70488;BME280;57976;48.174;16.370;2022-10-18T01:47:28;100286.75;;;15.75;70.39
70488;BME280;57976;48.174;16.370;2022-10-18T01:49:34;100287.98;;;15.77;70.44
70488;BME280;57976;48.174;16.370;2022-10-18T01:51:39;100286.47;;;15.74;70.17
70488;BME280;57976;48.174;16.370;2022-10-18T01:53:43;100284.80;;;15.66;70.35
70488;BME280;57976;48.174;16.370;2022-10-18T01:55:52;100283.64;;;15.64;70.57
70488;BME280;57976;48.174;16.370;2022-10-18T01:58:04;100279.14;;;15.61;70.53
70488;BME280;57976;48.174;16.370;2022-10-18T02:00:14;100274.85;;;15.58;71.06
70488;BME280;57976;48.174;16.370;2022-10-18T02:02:27;100269.64;;;15.56;71.39
70488;BME280;57976;48.174;16.370;2022-10-18T02:04:45;100267.91;;;15.54;71.59
70488;BME280;57976;48.174;16.370;2022-10-18T02:06:57;100273.82;;;15.51;71.70
70488;BME280;57976;48.174;16.370;2022-10-18T02:09:10;100279.20;;;15.51;71.63
70488;BME280;57976;48.174;16.370;2022-10-18T02:11:16;100280.79;;;15.48;71.62
70488;BME280;57976;48.174;16.370;2022-10-18T02:13:23;100282.31;;;15.48;71.63
70488;BME280;57976;48.174;16.370;2022-10-18T02:15:31;100283.95;;;15.47;71.79
70488;BME280;57976;48.174;16.370;2022-10-18T02:17:37;100285.23;;;15.48;71.91
70488;BME280;57976;48.174;16.370;2022-10-18T02:19:45;100283.70;;;15.49;72.10
70488;BME280;57976;48.174;16.370;2022-10-18T02:21:52;100282.70;;;15.45;71.80
70488;BME280;57976;48.174;16.370;2022-10-18T02:23:59;100284.14;;;15.37;72.11
70488;BME280;57976;48.174;16.370;2022-10-18T02:26:06;100279.69;;;15.31;72.26
70488;BME280;57976;48.174;16.370;2022-10-18T02:28:11;100281.59;;;15.31;72.46
70488;BME280;57976;48.174;16.370;2022-10-18T02:30:16;100277.13;;;15.25;72.66
70488;BME280;57976;48.174;16.370;2022-10-18T02:32:26;100277.88;;;15.21;72.81
70488;BME280;57976;48.174;16.370;2022-10-18T02:34:38;100275.35;;;15.19;73.02
70488;BME280;57976;48.174;16.370;2022-10-18T02:36:47;100276.85;;;15.20;73.44
70488;BME280;57976;48.174;16.370;2022-10-18T02:38:56;100276.06;;;15.20;73.20
70488;BME280;57976;48.174;16.370;2022-10-18T02:41:03;100275.32;;;15.20;73.63
70488;BME280;57976;48.174;16.370;2022-10-18T02:43:07;100280.89;;;15.20;73.64
70488;BME280;57976;48.174;16.370;2022-10-18T02:45:13;100282.80;;;15.19;73.42
70488;BME280;57976;48.174;16.370;2022-10-18T02:47:18;100286.92;;;15.17;73.69
70488;BME280;57976;48.174;16.370;2022-10-18T02:49:25;100288.61;;;15.12;73.72
70488;BME280;57976;48.174;16.370;2022-10-18T02:51:30;100289.69;;;15.08;74.31
70488;BME280;57976;48.174;16.370;2022-10-18T02:53:35;100290.85;;;15.09;75.01
70488;BME280;57976;48.174;16.370;2022-10-18T02:55:40;100289.69;;;15.08;75.34
70488;BME280;57976;48.174;16.370;2022-10-18T02:57:45;100291.66;;;15.07;75.78
70488;BME280;57976;48.174;16.370;2022-10-18T02:59:51;100291.17;;;15.03;75.76
70488;BME280;57976;48.174;16.370;2022-10-18T03:01:55;100298.06;;;14.94;76.29
70488;BME280;57976;48.174;16.370;2022-10-18T03:04:00;100298.17;;;14.87;76.70
70488;BME280;57976;48.174;16.370;2022-10-18T03:06:05;100292.92;;;14.78;77.20
70488;BME280;57976;48.174;16.370;2022-10-18T03:08:10;100297.45;;;14.71;77.87
70488;BME280;57976;48.174;16.370;2022-10-18T03:10:15;100294.34;;;14.65;78.18
70488;BME280;57976;48.174;16.370;2022-10-18T03:12:19;100292.73;;;14.61;78.60
70488;BME280;57976;48.174;16.370;2022-10-18T03:14:24;100292.27;;;14.59;78.81
70488;BME280;57976;48.174;16.370;2022-10-18T03:16:28;100296.02;;;14.54;79.11
70488;BME280;57976;48.174;16.370;2022-10-18T03:18:33;100297.40;;;14.48;79.07
70488;BME280;57976;48.174;16.370;2022-10-18T03:20:38;100294.74;;;14.46;79.68
70488;BME280;57976;48.174;16.370;2022-10-18T03:22:43;100297.50;;;14.41;79.88
70488;BME280;57976;48.174;16.370;2022-10-18T03:24:47;100300.29;;;14.36;80.29
70488;BME280;57976;48.174;16.370;2022-10-18T03:26:52;100297.33;;;14.30;80.57
70488;BME280;57976;48.174;16.370;2022-10-18T03:28:57;100297.63;;;14.28;80.68
70488;BME280;57976;48.174;16.370;2022-10-18T03:31:02;100302.89;;;14.29;80.89
70488;BME280;57976;48.174;16.370;2022-10-18T03:33:08;100302.61;;;14.30;81.09
70488;BME280;57976;48.174;16.370;2022-10-18T03:35:15;100306.50;;;14.29;81.18
70488;BME280;57976;48.174;16.370;2022-10-18T03:37:20;100305.28;;;14.30;81.44
70488;BME280;57976;48.174;16.370;2022-10-18T03:39:25;100309.47;;;14.32;81.47
70488;BME280;57976;48.174;16.370;2022-10-18T03:41:30;100312.71;;;14.30;81.57
70488;BME280;57976;48.174;16.370;2022-10-18T03:43:34;100320.98;;;14.26;81.70
70488;BME280;57976;48.174;16.370;2022-10-18T03:45:39;100326.30;;;14.19;81.92
70488;BME280;57976;48.174;16.370;2022-10-18T03:47:44;100327.98;;;14.11;82.07
70488;BME280;57976;48.174;16.370;2022-10-18T03:49:49;100327.54;;;14.02;82.35
70488;BME280;57976;48.174;16.370;2022-10-18T03:51:59;100322.52;;;13.97;82.63
70488;BME280;57976;48.174;16.370;2022-10-18T03:54:04;100322.25;;;13.93;83.19
70488;BME280;57976;48.174;16.370;2022-10-18T03:56:09;100324.01;;;13.84;83.12
70488;BME280;57976;48.174;16.370;2022-10-18T03:58:13;100327.56;;;13.78;83.55
70488;BME280;57976;48.174;16.370;2022-10-18T04:00:21;100329.67;;;13.74;83.72
70488;BME280;57976;48.174;16.370;2022-10-18T04:02:26;100328.83;;;13.70;83.93
70488;BME280;57976;48.174;16.370;2022-10-18T04:04:31;100330.66;;;13.68;84.20
70488;BME280;57976;48.174;16.370;2022-10-18T04:06:36;100327.86;;;13.66;84.41
70488;BME280;57976;48.174;16.370;2022-10-18T04:08:41;100327.17;;;13.63;84.61
70488;BME280;57976;48.174;16.370;2022-10-18T04:10:48;100325.30;;;13.61;84.55
70488;BME280;57976;48.174;16.370;2022-10-18T04:12:53;100325.73;;;13.61;84.68
70488;BME280;57976;48.174;16.370;2022-10-18T04:14:58;100322.00;;;13.58;84.68
70488;BME280;57976;48.174;16.370;2022-10-18T04:17:02;100317.14;;;13.54;84.81
70488;BME280;57976;48.174;16.370;2022-10-18T04:19:07;100320.38;;;13.52;85.18
70488;BME280;57976;48.174;16.370;2022-10-18T04:21:12;100315.59;;;13.51;85.38
70488;BME280;57976;48.174;16.370;2022-10-18T04:23:16;100318.87;;;13.52;85.75
70488;BME280;57976;48.174;16.370;2022-10-18T04:25:21;100312.30;;;13.55;85.60
70488;BME280;57976;48.174;16.370;2022-10-18T04:27:26;100313.84;;;13.59;85.72
70488;BME280;57976;48.174;16.370;2022-10-18T04:29:31;100316.93;;;13.59;85.67
70488;BME280;57976;48.174;16.370;2022-10-18T04:31:36;100317.77;;;13.56;85.51
70488;BME280;57976;48.174;16.370;2022-10-18T04:33:40;100319.29;;;13.54;85.23
70488;BME280;57976;48.174;16.370;2022-10-18T04:35:45;100316.58;;;13.51;85.10
70488;BME280;57976;48.174;16.370;2022-10-18T04:37:50;100315.13;;;13.49;84.61
70488;BME280;57976;48.174;16.370;2022-10-18T04:39:55;100318.25;;;13.48;84.84
70488;BME280;57976;48.174;16.370;2022-10-18T04:42:00;100318.48;;;13.48;84.46
70488;BME280;57976;48.174;16.370;2022-10-18T04:44:04;100319.13;;;13.44;83.49
70488;BME280;57976;48.174;16.370;2022-10-18T04:46:09;100323.31;;;13.42;83.03
70488;BME280;57976;48.174;16.370;2022-10-18T04:48:14;100327.48;;;13.38;82.27
70488;BME280;57976;48.174;16.370;2022-10-18T04:50:19;100326.51;;;13.29;81.88
70488;BME280;57976;48.174;16.370;2022-10-18T04:52:23;100326.42;;;13.22;81.74
70488;BME280;57976;48.174;16.370;2022-10-18T04:54:28;100329.64;;;13.15;81.57
70488;BME280;57976;48.174;16.370;2022-10-18T04:56:33;100333.12;;;13.09;81.61
70488;BME280;57976;48.174;16.370;2022-10-18T04:58:38;100329.91;;;13.03;81.84
70488;BME280;57976;48.174;16.370;2022-10-18T05:00:42;100327.96;;;13.01;81.98
70488;BME280;57976;48.174;16.370;2022-10-18T05:02:47;100325.73;;;12.99;81.91
70488;BME280;57976;48.174;16.370;2022-10-18T05:04:52;100326.73;;;13.00;82.05
70488;BME280;57976;48.174;16.370;2022-10-18T05:06:58;100327.30;;;13.01;82.08
70488;BME280;57976;48.174;16.370;2022-10-18T05:09:03;100329.42;;;13.02;82.04
70488;BME280;57976;48.174;16.370;2022-10-18T05:11:07;100330.67;;;13.04;82.19
70488;BME280;57976;48.174;16.370;2022-10-18T05:13:13;100328.83;;;13.04;82.04
70488;BME280;57976;48.174;16.370;2022-10-18T05:15:18;100324.36;;;13.06;81.92
70488;BME280;57976;48.174;16.370;2022-10-18T05:17:23;100316.77;;;13.07;81.94
70488;BME280;57976;48.174;16.370;2022-10-18T05:19:27;100315.25;;;13.07;81.75
70488;BME280;57976;48.174;16.370;2022-10-18T05:21:32;100319.75;;;13.08;81.78
70488;BME280;57976;48.174;16.370;2022-10-18T05:23:37;100319.79;;;13.14;81.79
70488;BME280;57976;48.174;16.370;2022-10-18T05:25:43;100323.66;;;13.17;81.53
70488;BME280;57976;48.174;16.370;2022-10-18T05:27:48;100322.43;;;13.20;81.36
70488;BME280;57976;48.174;16.370;2022-10-18T05:29:55;100326.08;;;13.20;81.20
70488;BME280;57976;48.174;16.370;2022-10-18T05:32:05;100331.20;;;13.18;81.19
70488;BME280;57976;48.174;16.370;2022-10-18T05:34:09;100328.98;;;13.14;81.06
70488;BME280;57976;48.174;16.370;2022-10-18T05:36:14;100331.58;;;13.10;81.01
70488;BME280;57976;48.174;16.370;2022-10-18T05:38:19;100334.19;;;13.06;80.89
70488;BME280;57976;48.174;16.370;2022-10-18T05:40:23;100336.21;;;13.02;81.04
70488;BME280;57976;48.174;16.370;2022-10-18T05:42:28;100336.91;;;13.02;81.44
70488;BME280;57976;48.174;16.370;2022-10-18T05:44:33;100335.14;;;13.04;81.46
70488;BME280;57976;48.174;16.370;2022-10-18T05:46:38;100333.13;;;13.06;81.64
70488;BME280;57976;48.174;16.370;2022-10-18T05:48:43;100338.02;;;13.09;81.30
70488;BME280;57976;48.174;16.370;2022-10-18T05:50:52;100340.36;;;13.12;81.14
70488;BME280;57976;48.174;16.370;2022-10-18T05:52:58;100340.91;;;13.12;81.04
70488;BME280;57976;48.174;16.370;2022-10-18T05:55:15;100341.30;;;13.12;80.92
70488;BME280;57976;48.174;16.370;2022-10-18T05:57:20;100339.71;;;13.14;80.86
70488;BME280;57976;48.174;16.370;2022-10-18T05:59:25;100335.59;;;13.16;80.74
70488;BME280;57976;48.174;16.370;2022-10-18T06:01:30;100334.88;;;13.16;80.64
70488;BME280;57976;48.174;16.370;2022-10-18T06:03:34;100335.41;;;13.16;80.42
70488;BME280;57976;48.174;16.370;2022-10-18T06:05:39;100330.06;;;13.16;80.42
70488;BME280;57976;48.174;16.370;2022-10-18T06:07:44;100331.27;;;13.22;80.45
70488;BME280;57976;48.174;16.370;2022-10-18T06:09:48;100324.09;;;13.26;80.22
70488;BME280;57976;48.174;16.370;2022-10-18T06:11:53;100326.36;;;13.31;79.99
70488;BME280;57976;48.174;16.370;2022-10-18T06:13:58;100327.66;;;13.35;79.92
70488;BME280;57976;48.174;16.370;2022-10-18T06:16:03;100333.75;;;13.39;80.71
70488;BME280;57976;48.174;16.370;2022-10-18T06:18:07;100333.77;;;13.40;80.75
70488;BME280;57976;48.174;16.370;2022-10-18T06:20:12;100336.48;;;13.42;80.12
70488;BME280;57976;48.174;16.370;2022-10-18T06:22:17;100335.14;;;13.47;80.41
70488;BME280;57976;48.174;16.370;2022-10-18T06:24:22;100339.41;;;13.53;81.51
70488;BME280;57976;48.174;16.370;2022-10-18T06:26:27;100343.02;;;13.61;81.78
70488;BME280;57976;48.174;16.370;2022-10-18T06:28:34;100346.73;;;13.65;81.32
70488;BME280;57976;48.174;16.370;2022-10-18T06:30:39;100346.80;;;13.71;81.71
70488;BME280;57976;48.174;16.370;2022-10-18T06:32:44;100345.55;;;13.76;80.36
70488;BME280;57976;48.174;16.370;2022-10-18T06:34:49;100345.94;;;13.79;79.77
70488;BME280;57976;48.174;16.370;2022-10-18T06:36:53;100347.21;;;13.85;79.36
70488;BME280;57976;48.174;16.370;2022-10-18T06:39:02;100349.23;;;13.91;78.87
70488;BME280;57976;48.174;16.370;2022-10-18T06:41:07;100347.20;;;13.90;77.96
70488;BME280;57976;48.174;16.370;2022-10-18T06:43:12;100353.23;;;13.88;78.18
70488;BME280;57976;48.174;16.370;2022-10-18T06:45:24;100354.98;;;13.88;78.04
70488;BME280;57976;48.174;16.370;2022-10-18T06:47:29;100358.28;;;13.88;77.52
70488;BME280;57976;48.174;16.370;2022-10-18T06:49:34;100359.73;;;13.90;77.68
70488;BME280;57976;48.174;16.370;2022-10-18T06:51:39;100363.32;;;13.97;77.68
70488;BME280;57976;48.174;16.370;2022-10-18T06:53:44;100358.83;;;14.02;77.69
70488;BME280;57976;48.174;16.370;2022-10-18T06:56:09;100366.32;;;14.08;76.95
70488;BME280;57976;48.174;16.370;2022-10-18T06:58:14;100359.51;;;14.07;76.59
70488;BME280;57976;48.174;16.370;2022-10-18T07:00:19;100363.11;;;14.04;76.45
70488;BME280;57976;48.174;16.370;2022-10-18T07:02:24;100361.49;;;14.02;76.58
70488;BME280;57976;48.174;16.370;2022-10-18T07:04:29;100357.17;;;14.01;76.21
70488;BME280;57976;48.174;16.370;2022-10-18T07:06:34;100358.67;;;13.98;76.57
70488;BME280;57976;48.174;16.370;2022-10-18T07:08:39;100367.53;;;13.99;76.57
70488;BME280;57976;48.174;16.370;2022-10-18T07:10:51;100368.66;;;14.00;76.41
70488;BME280;57976;48.174;16.370;2022-10-18T07:12:56;100370.27;;;14.00;76.38
70488;BME280;57976;48.174;16.370;2022-10-18T07:15:20;100369.09;;;14.02;76.23
70488;BME280;57976;48.174;16.370;2022-10-18T07:17:25;100367.15;;;14.01;76.04
70488;BME280;57976;48.174;16.370;2022-10-18T07:19:30;100371.21;;;14.00;76.27
70488;BME280;57976;48.174;16.370;2022-10-18T07:21:35;100372.49;;;14.02;76.34
70488;BME280;57976;48.174;16.370;2022-10-18T07:23:40;100369.41;;;14.02;76.22
70488;BME280;57976;48.174;16.370;2022-10-18T07:25:45;100367.52;;;14.03;76.19
70488;BME280;57976;48.174;16.370;2022-10-18T07:27:50;100365.63;;;14.04;75.70
70488;BME280;57976;48.174;16.370;2022-10-18T07:29:55;100366.52;;;14.01;75.78
70488;BME280;57976;48.174;16.370;2022-10-18T07:32:00;100363.42;;;13.93;75.60
70488;BME280;57976;48.174;16.370;2022-10-18T07:34:05;100360.38;;;13.88;75.46
70488;BME280;57976;48.174;16.370;2022-10-18T07:36:11;100364.79;;;13.87;75.81
70488;BME280;57976;48.174;16.370;2022-10-18T07:38:16;100360.28;;;13.86;76.05
70488;BME280;57976;48.174;16.370;2022-10-18T07:40:21;100361.70;;;13.87;76.06
70488;BME280;57976;48.174;16.370;2022-10-18T07:42:26;100361.14;;;13.90;76.14
70488;BME280;57976;48.174;16.370;2022-10-18T07:44:30;100360.80;;;13.90;75.67
70488;BME280;57976;48.174;16.370;2022-10-18T07:46:35;100362.85;;;13.88;76.02
70488;BME280;57976;48.174;16.370;2022-10-18T07:48:40;100364.05;;;13.87;76.04
70488;BME280;57976;48.174;16.370;2022-10-18T07:50:48;100361.79;;;13.89;76.14
70488;BME280;57976;48.174;16.370;2022-10-18T07:52:52;100360.84;;;13.95;76.38
70488;BME280;57976;48.174;16.370;2022-10-18T07:54:59;100359.44;;;14.02;76.59
70488;BME280;57976;48.174;16.370;2022-10-18T07:57:05;100356.77;;;14.12;76.57
70488;BME280;57976;48.174;16.370;2022-10-18T07:59:10;100357.24;;;14.23;76.09
70488;BME280;57976;48.174;16.370;2022-10-18T08:01:16;100354.58;;;14.31;75.86
70488;BME280;57976;48.174;16.370;2022-10-18T08:03:21;100357.22;;;14.38;75.63
70488;BME280;57976;48.174;16.370;2022-10-18T08:05:26;100356.05;;;14.46;75.54
70488;BME280;57976;48.174;16.370;2022-10-18T08:07:31;100351.34;;;14.56;75.29
70488;BME280;57976;48.174;16.370;2022-10-18T08:09:36;100354.51;;;14.65;75.18
70488;BME280;57976;48.174;16.370;2022-10-18T08:11:42;100353.12;;;14.74;75.03
70488;BME280;57976;48.174;16.370;2022-10-18T08:13:47;100348.52;;;14.83;74.79
70488;BME280;57976;48.174;16.370;2022-10-18T08:15:55;100348.17;;;14.90;74.29
70488;BME280;57976;48.174;16.370;2022-10-18T08:18:02;100349.23;;;14.97;74.09
70488;BME280;57976;48.174;16.370;2022-10-18T08:20:07;100350.23;;;15.04;73.86
70488;BME280;57976;48.174;16.370;2022-10-18T08:22:29;100344.98;;;15.11;73.74
70488;BME280;57976;48.174;16.370;2022-10-18T08:24:34;100345.02;;;15.18;73.45
70488;BME280;57976;48.174;16.370;2022-10-18T08:26:39;100343.63;;;15.23;73.08
70488;BME280;57976;48.174;16.370;2022-10-18T08:28:44;100343.55;;;15.29;72.44
70488;BME280;57976;48.174;16.370;2022-10-18T08:31:04;100341.52;;;15.31;72.44
70488;BME280;57976;48.174;16.370;2022-10-18T08:33:09;100341.19;;;15.36;72.49
70488;BME280;57976;48.174;16.370;2022-10-18T08:35:15;100344.23;;;15.42;72.21
70488;BME280;57976;48.174;16.370;2022-10-18T08:37:20;100347.87;;;15.47;72.04
70488;BME280;57976;48.174;16.370;2022-10-18T08:39:24;100344.77;;;15.51;71.74
70488;BME280;57976;48.174;16.370;2022-10-18T08:44:06;100338.94;;;15.58;71.59
70488;BME280;57976;48.174;16.370;2022-10-18T08:46:15;100341.58;;;15.61;71.11
70488;BME280;57976;48.174;16.370;2022-10-18T08:48:24;100337.13;;;15.63;71.11
70488;BME280;57976;48.174;16.370;2022-10-18T08:50:34;100338.10;;;15.65;72.03
70488;BME280;57976;48.174;16.370;2022-10-18T08:52:45;100335.90;;;15.72;71.55
70488;BME280;57976;48.174;16.370;2022-10-18T08:54:57;100333.96;;;15.77;70.87
70488;BME280;57976;48.174;16.370;2022-10-18T08:57:11;100326.77;;;15.80;70.54
70488;BME280;57976;48.174;16.370;2022-10-18T08:59:16;100324.42;;;15.86;70.86
70488;BME280;57976;48.174;16.370;2022-10-18T09:01:33;100323.79;;;15.94;70.76
70488;BME280;57976;48.174;16.370;2022-10-18T09:03:55;100321.58;;;16.00;70.61
70488;BME280;57976;48.174;16.370;2022-10-18T09:06:10;100318.33;;;16.07;69.87
70488;BME280;57976;48.174;16.370;2022-10-18T09:11:04;100315.05;;;16.22;69.79
70488;BME280;57976;48.174;16.370;2022-10-18T09:13:26;100312.73;;;16.30;69.32
70488;BME280;57976;48.174;16.370;2022-10-18T09:15:41;100310.27;;;16.35;69.21
70488;BME280;57976;48.174;16.370;2022-10-18T09:17:57;100309.54;;;16.41;68.93
70488;BME280;57976;48.174;16.370;2022-10-18T09:20:15;100312.44;;;16.49;69.06
70488;BME280;57976;48.174;16.370;2022-10-18T09:22:29;100312.44;;;16.57;68.53
70488;BME280;57976;48.174;16.370;2022-10-18T09:24:39;100311.66;;;16.62;68.07
70488;BME280;57976;48.174;16.370;2022-10-18T09:26:48;100310.18;;;16.67;67.47
70488;BME280;57976;48.174;16.370;2022-10-18T09:29:07;100309.43;;;16.67;66.98
70488;BME280;57976;48.174;16.370;2022-10-18T09:31:20;100308.66;;;16.71;68.16
70488;BME280;57976;48.174;16.370;2022-10-18T09:33:34;100305.21;;;16.79;68.28
70488;BME280;57976;48.174;16.370;2022-10-18T09:35:46;100303.70;;;16.89;67.73
70488;BME280;57976;48.174;16.370;2022-10-18T09:37:58;100302.56;;;16.98;67.54
70488;BME280;57976;48.174;16.370;2022-10-18T09:40:11;100300.38;;;17.02;67.00
70488;BME280;57976;48.174;16.370;2022-10-18T09:42:25;100303.39;;;17.03;66.50
70488;BME280;57976;48.174;16.370;2022-10-18T09:44:34;100298.34;;;17.05;66.42
70488;BME280;57976;48.174;16.370;2022-10-18T09:46:43;100295.59;;;17.07;66.69
70488;BME280;57976;48.174;16.370;2022-10-18T09:48:54;100288.12;;;17.07;66.30
70488;BME280;57976;48.174;16.370;2022-10-18T09:51:02;100285.89;;;17.11;66.57
70488;BME280;57976;48.174;16.370;2022-10-18T09:53:18;100283.75;;;17.16;66.33
70488;BME280;57976;48.174;16.370;2022-10-18T09:55:29;100282.50;;;17.20;66.25
70488;BME280;57976;48.174;16.370;2022-10-18T09:57:38;100279.52;;;17.24;66.20
70488;BME280;57976;48.174;16.370;2022-10-18T09:59:46;100282.89;;;17.28;66.32
70488;BME280;57976;48.174;16.370;2022-10-18T10:01:51;100279.91;;;17.33;65.92
70488;BME280;57976;48.174;16.370;2022-10-18T10:03:56;100279.49;;;17.37;65.79
70488;BME280;57976;48.174;16.370;2022-10-18T10:06:21;100271.60;;;17.38;65.45
70488;BME280;57976;48.174;16.370;2022-10-18T10:08:32;100268.08;;;17.43;65.83
70488;BME280;57976;48.174;16.370;2022-10-18T10:10:40;100269.56;;;17.49;65.52
70488;BME280;57976;48.174;16.370;2022-10-18T10:12:49;100268.45;;;17.56;65.59
70488;BME280;57976;48.174;16.370;2022-10-18T10:15:11;100266.70;;;17.64;65.91
70488;BME280;57976;48.174;16.370;2022-10-18T10:17:24;100270.83;;;17.73;64.77
70488;BME280;57976;48.174;16.370;2022-10-18T10:19:32;100272.34;;;17.76;63.68
70488;BME280;57976;48.174;16.370;2022-10-18T10:21:41;100269.10;;;17.79;64.41
70488;BME280;57976;48.174;16.370;2022-10-18T10:23:49;100265.81;;;17.84;63.91
70488;BME280;57976;48.174;16.370;2022-10-18T10:25:55;100266.61;;;17.86;63.56
70488;BME280;57976;48.174;16.370;2022-10-18T10:28:05;100258.95;;;17.90;64.26
70488;BME280;57976;48.174;16.370;2022-10-18T10:30:26;100261.69;;;17.97;64.32
70488;BME280;57976;48.174;16.370;2022-10-18T10:32:46;100261.23;;;18.02;63.54
70488;BME280;57976;48.174;16.370;2022-10-18T10:34:51;100266.48;;;18.05;63.85
70488;BME280;57976;48.174;16.370;2022-10-18T10:36:56;100265.04;;;18.04;63.46
70488;BME280;57976;48.174;16.370;2022-10-18T10:39:08;100261.79;;;18.05;63.44
70488;BME280;57976;48.174;16.370;2022-10-18T10:41:22;100264.85;;;18.09;63.23
70488;BME280;57976;48.174;16.370;2022-10-18T10:43:28;100256.82;;;18.10;63.25
70488;BME280;57976;48.174;16.370;2022-10-18T10:45:56;100248.94;;;18.11;63.34
70488;BME280;57976;48.174;16.370;2022-10-18T10:48:12;100244.39;;;18.12;63.32
70488;BME280;57976;48.174;16.370;2022-10-18T10:50:23;100246.74;;;18.17;63.44
70488;BME280;57976;48.174;16.370;2022-10-18T10:52:29;100243.34;;;18.23;63.38
70488;BME280;57976;48.174;16.370;2022-10-18T10:54:35;100243.55;;;18.32;63.48
70488;BME280;57976;48.174;16.370;2022-10-18T10:56:53;100239.68;;;18.41;63.18
70488;BME280;57976;48.174;16.370;2022-10-18T10:59:05;100241.60;;;18.49;62.98
70488;BME280;57976;48.174;16.370;2022-10-18T11:01:27;100237.81;;;18.55;63.10
70488;BME280;57976;48.174;16.370;2022-10-18T11:03:33;100235.61;;;18.61;62.68
70488;BME280;57976;48.174;16.370;2022-10-18T11:05:46;100231.55;;;18.63;61.33
70488;BME280;57976;48.174;16.370;2022-10-18T11:07:53;100228.03;;;18.65;62.38